Time;durP1;ratioP1;P1;durP2;ratioP2;P2;SDS_P1;SDS_P2;PMS_P1;PMS_P2;Temp;Humidity;BMP_temperature;BMP_pressure;BME280_temperature;BME280_humidity;BME280_pressure;Samples;Min_cycle;Max_cycle;Signal;HPM_P1;HPM_P2
2024/04/03 00:02:49;;;;;;;1.57;0.43;;;;;;;3.24;100.00;97328.28;6285040;28;20244;-51
2024/04/03 00:05:51;;;;;;;2.13;0.40;;;;;;;3.14;100.00;97327.88;6289520;28;20220;-52
2024/04/03 00:08:52;;;;;;;0.87;0.40;;;;;;;3.12;100.00;97329.91;6285329;28;20622;-52
2024/04/03 00:11:53;;;;;;;0.47;0.30;;;;;;;3.29;100.00;97327.66;6285686;28;20245;-53
2024/04/03 00:14:54;;;;;;;0.77;0.33;;;;;;;3.17;100.00;97332.75;6288038;28;20661;-52
2024/04/03 00:17:55;;;;;;;0.50;0.40;;;;;;;3.15;100.00;97333.94;6287151;28;20202;-50
2024/04/03 00:21:01;;;;;;;0.27;0.27;;;;;;;3.08;100.00;97337.41;6298381;28;20202;-53
2024/04/03 00:24:02;;;;;;;2.50;0.33;;;;;;;2.99;100.00;97330.72;6296166;28;20293;-49
2024/04/03 00:27:03;;;;;;;4.50;0.40;;;;;;;2.96;100.00;97325.06;6280395;28;20214;-53
2024/04/03 00:30:05;;;;;;;0.30;0.30;;;;;;;2.99;100.00;97320.19;6292073;28;20560;-49
2024/04/03 00:33:06;;;;;;;1.70;0.83;;;;;;;2.96;100.00;97315.34;6287597;28;20213;-52
2024/04/03 00:36:07;;;;;;;3.17;0.63;;;;;;;2.94;100.00;97329.69;6292749;28;20194;-51
2024/04/03 00:39:08;;;;;;;3.20;0.60;;;;;;;2.92;100.00;97327.28;6300705;28;20193;-51
2024/04/03 00:42:09;;;;;;;3.20;0.57;;;;;;;2.86;100.00;97325.47;6293285;28;20198;-51
2024/04/03 00:45:10;;;;;;;0.60;0.30;;;;;;;2.85;100.00;97327.25;6290654;28;20232;-54
2024/04/03 00:48:12;;;;;;;2.40;0.50;;;;;;;2.74;100.00;97309.44;6286896;28;20210;-48
2024/04/03 00:51:13;;;;;;;2.17;0.43;;;;;;;2.87;100.00;97323.63;6282030;28;20185;-51
2024/04/03 00:54:18;;;;;;;1.50;0.40;;;;;;;2.85;100.00;97322.00;6297306;28;20194;-53
2024/04/03 00:57:19;;;;;;;2.13;0.40;;;;;;;2.83;100.00;97329.28;6290450;28;20191;-50
2024/04/03 01:00:20;;;;;;;1.90;0.50;;;;;;;2.75;100.00;97324.22;6287894;28;20736;-53
2024/04/03 01:03:21;;;;;;;0.87;0.47;;;;;;;2.75;100.00;97324.22;6304629;28;20793;-50
2024/04/03 01:06:22;;;;;;;1.30;0.30;;;;;;;2.70;100.00;97317.94;6293395;28;20205;-53
2024/04/03 01:09:23;;;;;;;1.90;0.40;;;;;;;2.64;100.00;97302.97;6290848;28;20213;-48
2024/04/03 01:12:24;;;;;;;0.77;0.40;;;;;;;2.71;100.00;97309.03;6293461;28;20649;-52
2024/04/03 01:15:25;;;;;;;0.63;0.37;;;;;;;2.74;100.00;97306.81;6304155;28;20673;-52
2024/04/03 01:18:27;;;;;;;0.83;0.30;;;;;;;2.93;100.00;97299.94;6271881;28;20230;-51
2024/04/03 01:21:29;;;;;;;0.90;0.43;;;;;;;2.87;100.00;97292.88;6294781;28;20194;-50
2024/04/03 01:24:30;;;;;;;3.33;0.60;;;;;;;2.75;100.00;97294.47;6297547;28;20684;-52
2024/04/03 01:27:31;;;;;;;1.70;0.40;;;;;;;2.65;100.00;97292.25;6303353;28;20204;-51
2024/04/03 01:30:33;;;;;;;1.00;0.40;;;;;;;2.57;100.00;97300.34;6279090;28;20228;-49
2024/04/03 01:33:34;;;;;;;1.63;0.40;;;;;;;2.55;100.00;97302.34;6289755;28;20202;-51
2024/04/03 01:36:35;;;;;;;0.63;0.50;;;;;;;2.79;100.00;97293.88;6290769;28;20194;-50
2024/04/03 01:39:36;;;;;;;4.13;0.40;;;;;;;2.68;100.00;97296.31;6288272;28;20186;-50
2024/04/03 01:42:37;;;;;;;0.87;0.50;;;;;;;2.76;100.00;97270.63;6290974;28;20328;-51
2024/04/03 01:45:38;;;;;;;0.57;0.30;;;;;;;2.72;100.00;97308.84;6277946;28;20651;-50
2024/04/03 01:48:39;;;;;;;0.83;0.30;;;;;;;2.66;100.00;97309.66;6294797;28;20707;-52
2024/04/03 01:51:41;;;;;;;1.20;0.37;;;;;;;2.55;100.00;97297.88;6282743;28;20292;-53
2024/04/03 01:54:42;;;;;;;1.00;0.30;;;;;;;2.58;100.00;97313.28;6296284;28;20188;-51
2024/04/03 01:57:43;;;;;;;1.60;0.23;;;;;;;2.58;100.00;97315.09;6291579;28;20238;-52
2024/04/03 02:00:46;;;;;;;2.20;0.50;;;;;;;2.58;100.00;97317.72;6284216;28;20196;-54
2024/04/03 02:03:47;;;;;;;1.93;0.40;;;;;;;2.66;100.00;97314.94;6287348;28;20193;-51
2024/04/03 02:06:48;;;;;;;0.97;0.40;;;;;;;2.40;100.00;97299.09;6309160;28;20192;-49
2024/04/03 02:09:49;;;;;;;1.60;0.40;;;;;;;2.53;100.00;97310.44;6276506;28;20224;-52
2024/04/03 02:12:50;;;;;;;1.10;0.30;;;;;;;2.47;100.00;97313.88;6279887;28;20236;-52
2024/04/03 02:15:52;;;;;;;0.50;0.33;;;;;;;2.46;100.00;97309.59;6275324;28;20208;-52
2024/04/03 02:18:53;;;;;;;0.43;0.40;;;;;;;2.40;100.00;97310.41;6295539;28;20229;-53
2024/04/03 02:21:54;;;;;;;1.03;0.60;;;;;;;2.36;100.00;97313.63;6301422;28;20189;-50
2024/04/03 02:24:55;;;;;;;1.23;0.60;;;;;;;2.36;100.00;97311.81;6280542;28;20210;-54
2024/04/03 02:27:56;;;;;;;1.63;0.47;;;;;;;2.30;100.00;97310.78;6293107;28;20228;-55
2024/04/03 02:31:01;;;;;;;0.70;0.50;;;;;;;2.11;100.00;97276.56;6288828;28;20193;-52
2024/04/03 02:34:02;;;;;;;0.30;0.30;;;;;;;2.12;100.00;97292.16;6289399;28;20194;-52
2024/04/03 02:37:03;;;;;;;0.70;0.40;;;;;;;1.97;100.00;97270.47;6295977;28;20203;-52
2024/04/03 02:40:05;;;;;;;0.90;0.30;;;;;;;2.28;100.00;97299.66;6289528;28;20186;-54
2024/04/03 02:43:06;;;;;;;0.77;0.50;;;;;;;2.21;100.00;97298.81;6291337;28;20789;-50
2024/04/03 02:46:07;;;;;;;0.80;0.40;;;;;;;2.21;100.00;97298.81;6289954;28;20661;-54
2024/04/03 02:49:08;;;;;;;1.33;0.50;;;;;;;2.25;100.00;97302.69;6299414;28;20621;-52
2024/04/03 02:52:09;;;;;;;0.70;0.40;;;;;;;2.20;100.00;97297.22;6293794;28;20204;-53
2024/04/03 02:55:10;;;;;;;3.27;0.67;;;;;;;2.23;100.00;97299.44;6294247;28;20185;-49
2024/04/03 02:58:11;;;;;;;0.60;0.50;;;;;;;2.09;100.00;97287.28;6274068;28;20186;-53
2024/04/03 03:01:12;;;;;;;1.30;0.50;;;;;;;2.27;100.00;97302.50;6289586;28;20190;-52
2024/04/03 03:04:13;;;;;;;1.70;0.40;;;;;;;2.17;100.00;97300.25;6298650;28;20183;-52
2024/04/03 03:07:14;;;;;;;0.60;0.30;;;;;;;1.99;100.00;97276.34;6294594;28;20192;-51
2024/04/03 03:10:15;;;;;;;1.23;0.40;;;;;;;2.17;100.00;97302.88;6290179;28;20199;-53
2024/04/03 03:13:16;;;;;;;1.83;0.60;;;;;;;2.14;100.00;97297.19;6275530;28;20190;-53
2024/04/03 03:16:21;;;;;;;1.77;0.57;;;;;;;2.15;100.00;97310.13;6293008;28;20666;-52
2024/04/03 03:19:24;;;;;;;3.33;1.13;;;;;;;2.29;100.00;97303.91;6294172;28;20272;-55
2024/04/03 03:22:25;;;;;;;2.03;0.50;;;;;;;2.17;100.00;97302.03;6295680;28;20195;-49
2024/04/03 03:25:26;;;;;;;1.27;0.40;;;;;;;2.11;100.00;97290.50;6310470;28;20185;-50
2024/04/03 03:28:27;;;;;;;0.70;0.50;;;;;;;2.11;100.00;97301.03;6304468;28;20587;-53
2024/04/03 03:31:28;;;;;;;1.47;0.47;;;;;;;2.16;100.00;97300.44;6303475;28;20649;-51
2024/04/03 03:34:29;;;;;;;1.23;0.50;;;;;;;2.12;100.00;97293.94;6298326;28;20198;-50
2024/04/03 03:37:30;;;;;;;0.80;0.50;;;;;;;2.11;100.00;97306.28;6293173;28;20606;-52
2024/04/03 03:40:32;;;;;;;2.77;0.60;;;;;;;2.09;100.00;97300.41;6292818;28;20342;-52
2024/04/03 03:43:33;;;;;;;1.00;0.60;;;;;;;2.11;100.00;97302.84;6269913;28;20247;-52
2024/04/03 03:46:34;;;;;;;2.47;0.23;;;;;;;2.20;100.00;97309.53;6296278;28;20201;-50
2024/04/03 03:52:55;;;;;;;1.07;0.60;;;;;;;2.00;100.00;97305.03;6288337;28;20197;-50
2024/04/03 03:55:56;;;;;;;3.27;0.60;;;;;;;2.01;100.00;97303.22;6298637;28;20186;-50
2024/04/03 03:58:57;;;;;;;0.90;0.50;;;;;;;2.02;100.00;97305.66;6296189;28;20191;-51
2024/04/03 04:01:58;;;;;;;1.40;0.40;;;;;;;2.11;100.00;97302.84;6296605;28;20239;-52
2024/04/03 04:04:59;;;;;;;0.40;0.40;;;;;;;1.99;100.00;97311.28;6294060;28;20200;-52
2024/04/03 04:08:01;;;;;;;1.80;0.40;;;;;;;1.90;100.00;97315.09;6304570;28;20330;-51
2024/04/03 04:11:03;;;;;;;1.57;0.43;;;;;;;1.81;100.00;97311.81;6302529;28;20193;-51
2024/04/03 04:14:05;;;;;;;1.40;0.47;;;;;;;1.83;100.00;97301.13;6297326;28;20192;-50
2024/04/03 04:17:06;;;;;;;0.40;0.40;;;;;;;1.87;100.00;97304.16;6291091;28;20267;-49
2024/04/03 04:20:08;;;;;;;1.43;0.40;;;;;;;1.89;100.00;97317.94;6294297;28;20466;-52
2024/04/03 04:23:09;;;;;;;1.57;0.60;;;;;;;1.81;100.00;97314.44;6298677;28;20197;-53
2024/04/03 04:26:10;;;;;;;2.47;0.50;;;;;;;2.03;100.00;97315.16;6293311;28;20191;-53
2024/04/03 04:29:13;;;;;;;0.63;0.40;;;;;;;1.89;100.00;97315.31;6281091;28;20224;-53
2024/04/03 04:32:16;;;;;;;0.90;0.60;;;;;;;1.79;100.00;97308.59;6282012;28;20204;-51
2024/04/03 04:35:17;;;;;;;0.90;0.53;;;;;;;1.97;100.00;97307.22;6301243;28;20201;-51
2024/04/03 04:38:18;;;;;;;1.60;0.60;;;;;;;1.80;100.00;97298.88;6279579;28;20190;-53
2024/04/03 04:41:20;;;;;;;1.97;0.50;;;;;;;1.85;100.00;97307.00;6287711;28;20236;-52
2024/04/03 04:44:22;;;;;;;1.80;0.80;;;;;;;1.81;100.00;97303.94;6292402;28;20186;-51
2024/04/03 04:47:23;;;;;;;0.40;0.37;;;;;;;1.85;100.00;97308.81;6289022;28;20192;-54
2024/04/03 04:50:24;;;;;;;1.60;0.80;;;;;;;1.88;100.00;97311.06;6276599;28;20195;-53
2024/04/03 04:53:25;;;;;;;2.47;0.67;;;;;;;1.97;100.00;97300.19;6292567;28;20670;-52
2024/04/03 04:56:26;;;;;;;0.60;0.60;;;;;;;2.22;100.00;97304.91;6289238;28;20715;-52
2024/04/03 04:59:27;;;;;;;0.77;0.37;;;;;;;2.16;100.00;97295.19;6298969;28;20182;-55
2024/04/03 05:02:29;;;;;;;0.53;0.33;;;;;;;2.33;100.00;97312.22;6294057;28;20667;-51
2024/04/03 05:05:33;;;;;;;1.07;0.60;;;;;;;2.47;100.00;97313.06;6289092;28;20266;-53
2024/04/03 05:08:34;;;;;;;0.77;0.50;;;;;;;2.11;100.00;97318.59;6305010;28;20668;-53
2024/04/03 05:11:35;;;;;;;0.80;0.40;;;;;;;2.01;100.00;97316.34;6299820;28;20193;-53
2024/04/03 05:14:36;;;;;;;3.83;1.70;;;;;;;2.00;100.00;97317.34;6295568;28;20198;-53
2024/04/03 05:17:37;;;;;;;1.57;0.70;;;;;;;1.99;100.00;97323.63;6293638;28;20190;-54
2024/04/03 05:20:40;;;;;;;2.73;0.57;;;;;;;1.81;100.00;97301.31;6290332;28;20236;-52
2024/04/03 05:23:43;;;;;;;0.60;0.30;;;;;;;1.92;100.00;97314.88;6282817;28;20189;-53
2024/04/03 05:26:44;;;;;;;1.50;0.50;;;;;;;1.90;100.00;97303.78;6291588;28;20195;-52
2024/04/03 05:29:45;;;;;;;2.10;0.57;;;;;;;2.01;100.00;97308.47;6289367;28;20211;-53
2024/04/03 05:32:46;;;;;;;1.50;0.80;;;;;;;2.07;100.00;97307.69;6285314;28;20199;-53
2024/04/03 05:35:57;;;;;;;1.43;0.70;;;;;;;2.01;100.00;97297.97;6283394;28;20192;-52
2024/04/03 05:38:58;;;;;;;3.37;0.60;;;;;;;2.06;100.00;97295.53;6295549;28;20199;-51
2024/04/03 05:41:59;;;;;;;0.63;0.50;;;;;;;2.01;100.00;97282.19;6293511;28;20259;-51
2024/04/03 05:45:00;;;;;;;4.43;0.40;;;;;;;2.40;100.00;97273.59;6291907;28;20193;-48
2024/04/03 05:48:02;;;;;;;1.07;0.50;;;;;;;2.35;100.00;97289.16;6290592;28;20920;-52
2024/04/03 05:51:07;;;;;;;0.93;0.50;;;;;;;2.24;100.00;97271.34;6292202;28;20738;-52
2024/04/03 05:54:08;;;;;;;0.50;0.50;;;;;;;2.28;100.00;97299.66;6303488;28;20749;-51
2024/04/03 05:57:09;;;;;;;1.47;0.50;;;;;;;2.25;100.00;97288.75;6298681;28;20406;-50
2024/04/03 06:00:12;;;;;;;1.80;0.50;;;;;;;2.30;100.00;97302.91;6291960;28;20201;-52
2024/04/03 06:03:14;;;;;;;2.37;0.60;;;;;;;2.29;100.00;97277.63;6305939;28;20647;-52
2024/04/03 06:06:15;;;;;;;2.23;0.60;;;;;;;2.49;100.00;97293.44;6297926;28;20198;-53
2024/04/03 06:09:16;;;;;;;1.60;0.70;;;;;;;2.45;100.00;97299.28;6294409;28;20219;-53
2024/04/03 06:12:17;;;;;;;1.43;0.60;;;;;;;2.51;100.00;97295.84;6297216;28;20197;-52
2024/04/03 06:15:18;;;;;;;2.97;0.60;;;;;;;2.66;100.00;97296.50;6275209;28;20192;-51
2024/04/03 06:18:20;;;;;;;1.27;0.70;;;;;;;2.59;100.00;97299.13;6294649;28;20708;-55
2024/04/03 06:21:21;;;;;;;3.70;0.40;;;;;;;2.66;100.00;97288.63;6292115;28;20221;-52
2024/04/03 06:24:22;;;;;;;0.53;0.53;;;;;;;2.67;100.00;97299.94;6296316;28;20194;-50
2024/04/03 06:27:24;;;;;;;1.30;0.60;;;;;;;2.75;100.00;97299.75;6276031;28;20202;-51
2024/04/03 06:30:25;;;;;;;3.50;0.80;;;;;;;2.84;100.00;97290.63;6294632;28;20222;-51
2024/04/03 06:33:27;;;;;;;0.70;0.50;;;;;;;3.06;100.00;97275.47;6290063;28;20194;-54
2024/04/03 06:36:31;;;;;;;1.10;0.70;;;;;;;3.44;100.00;97288.75;6298757;28;20293;-52
2024/04/03 06:39:32;;;;;;;0.97;0.80;;;;;;;3.78;100.00;97289.47;6294059;28;20212;-50
2024/04/03 06:42:34;;;;;;;2.87;0.70;;;;;;;4.04;100.00;97296.47;6295277;28;20193;-52
2024/04/03 06:45:35;;;;;;;2.13;0.47;;;;;;;4.29;100.00;97289.47;6293272;28;20195;-52
2024/04/03 06:48:36;;;;;;;1.10;0.90;;;;;;;4.52;100.00;97281.00;6300760;28;20211;-53
2024/04/03 06:51:38;;;;;;;1.77;0.50;;;;;;;4.74;100.00;97280.66;6295555;28;20204;-54
2024/04/03 06:54:39;;;;;;;0.83;0.40;;;;;;;4.94;100.00;97280.53;6295107;28;20200;-52
2024/04/03 06:57:40;;;;;;;2.60;0.47;;;;;;;5.16;100.00;97281.72;6302658;28;20191;-54
2024/04/03 07:00:42;;;;;;;0.57;0.50;;;;;;;5.30;100.00;97275.31;6296507;28;20184;-52
2024/04/03 07:03:43;;;;;;;2.33;0.50;;;;;;;5.61;100.00;97260.34;6274603;28;20276;-51
2024/04/03 07:06:44;;;;;;;3.50;0.60;;;;;;;5.89;100.00;97265.13;6282579;28;20197;-53
2024/04/03 07:09:45;;;;;;;1.47;0.50;;;;;;;6.10;100.00;97258.59;6286315;28;20205;-56
2024/04/03 07:12:46;;;;;;;2.30;0.60;;;;;;;6.57;99.98;97258.75;6298395;28;20194;-53
2024/04/03 07:15:48;;;;;;;1.10;0.53;;;;;;;8.25;70.89;97257.16;6293203;28;20201;-54
2024/04/03 07:18:56;;;;;;;2.27;0.40;;;;;;;8.67;76.92;97256.84;6287911;28;20234;-55
2024/04/03 07:21:57;;;;;;;0.73;0.50;;;;;;;9.03;77.72;97259.06;6298054;28;20262;-56
2024/04/03 07:24:58;;;;;;;0.67;0.40;;;;;;;9.27;80.42;97253.56;6297018;28;20193;-56
2024/04/03 07:28:12;;;;;;;0.57;0.40;;;;;;;9.69;76.08;97250.41;6287279;28;20234;-54
2024/04/03 07:31:14;;;;;;;1.53;0.40;;;;;;;10.52;59.84;97249.25;6290049;28;20186;-55
2024/04/03 07:34:15;;;;;;;1.13;0.70;;;;;;;10.98;58.22;97254.16;6289053;28;20206;-56
2024/04/03 07:37:16;;;;;;;0.73;0.50;;;;;;;11.05;64.01;97246.78;6289655;28;20203;-55
2024/04/03 07:40:18;;;;;;;2.53;0.53;;;;;;;11.23;64.83;97251.72;6283511;28;20204;-56
2024/04/03 07:43:19;;;;;;;2.53;0.43;;;;;;;11.42;66.12;97257.41;6292494;28;20198;-55
2024/04/03 07:46:20;;;;;;;0.47;0.30;;;;;;;11.74;50.26;97251.22;6293600;28;20201;-57
2024/04/03 07:49:21;;;;;;;1.67;0.50;;;;;;;11.95;51.59;97250.25;6304441;28;20208;-56
2024/04/03 07:52:22;;;;;;;0.33;0.33;;;;;;;12.20;48.36;97257.56;6299952;28;20216;-55
2024/04/03 07:55:23;;;;;;;1.97;0.60;;;;;;;12.16;50.55;97240.44;6294536;28;20236;-55
2024/04/03 07:58:24;;;;;;;0.60;0.50;;;;;;;12.47;60.27;97256.59;6291434;28;20572;-56
2024/04/03 08:01:25;;;;;;;1.00;0.60;;;;;;;12.70;54.17;97260.59;6300029;28;20276;-57
2024/04/03 08:04:28;;;;;;;1.43;0.50;;;;;;;13.28;44.61;97261.19;6297350;28;20189;-55
2024/04/03 08:07:29;;;;;;;1.57;0.40;;;;;;;13.31;50.11;97245.41;6294759;28;20484;-56
2024/04/03 08:10:30;;;;;;;2.77;0.50;;;;;;;13.33;52.30;97242.47;6278193;28;20194;-55
2024/04/03 08:13:33;;;;;;;1.47;0.50;;;;;;;13.21;46.30;97232.03;6301950;28;20194;-56
2024/04/03 08:16:35;;;;;;;0.70;0.30;;;;;;;13.23;49.21;97255.84;6304311;28;20672;-55
2024/04/03 08:19:36;;;;;;;1.67;0.40;;;;;;;13.29;48.82;97250.22;6301949;28;20214;-55
2024/04/03 08:22:37;;;;;;;2.33;0.30;;;;;;;13.51;48.81;97230.41;6296494;28;20618;-55
2024/04/03 08:25:39;;;;;;;1.93;0.40;;;;;;;13.89;44.77;97245.81;6291869;28;20191;-57
2024/04/03 08:28:40;;;;;;;0.50;0.50;;;;;;;14.30;43.40;97224.19;6279733;28;20198;-54
2024/04/03 08:31:42;;;;;;;0.70;0.40;;;;;;;14.62;48.40;97229.09;6279099;28;20202;-56
2024/04/03 08:34:44;;;;;;;1.83;0.77;;;;;;;14.75;49.40;97234.91;6292680;28;20197;-55
2024/04/03 08:37:45;;;;;;;2.40;0.57;;;;;;;14.98;48.48;97228.06;6284138;28;20217;-54
2024/04/03 08:40:56;;;;;;;1.00;0.47;;;;;;;15.17;41.77;97229.75;6282448;28;20183;-53
2024/04/03 08:43:57;;;;;;;0.90;0.50;;;;;;;15.15;42.29;97226.53;6290424;28;20199;-54
2024/04/03 08:46:59;;;;;;;1.17;0.60;;;;;;;15.25;43.78;97222.97;6275491;28;20745;-55
2024/04/03 08:50:01;;;;;;;0.33;0.33;;;;;;;15.40;50.56;97224.69;6285258;28;20260;-56
2024/04/03 08:53:03;;;;;;;1.00;0.47;;;;;;;15.57;46.28;97222.38;6285850;28;20564;-54
2024/04/03 08:56:04;;;;;;;1.63;0.70;;;;;;;15.62;41.22;97216.16;6287424;28;20194;-53
2024/04/03 08:59:05;;;;;;;3.53;0.70;;;;;;;15.65;42.78;97216.41;6276172;28;20216;-54
2024/04/03 09:02:07;;;;;;;0.73;0.40;;;;;;;15.44;39.79;97220.38;6286582;28;20186;-53
2024/04/03 09:05:10;;;;;;;1.60;0.43;;;;;;;15.37;41.23;97201.09;6291314;28;20194;-55
2024/04/03 09:08:11;;;;;;;0.33;0.30;;;;;;;15.62;40.11;97205.41;6286899;28;20223;-55
2024/04/03 09:11:22;;;;;;;1.10;0.60;;;;;;;15.74;41.99;97212.00;6289615;28;20599;-55
2024/04/03 09:14:24;;;;;;;0.50;0.40;;;;;;;15.90;40.98;97214.50;6288569;28;20282;-53
2024/04/03 09:17:25;;;;;;;0.40;0.40;;;;;;;16.12;39.59;97204.03;6296459;28;20190;-53
2024/04/03 09:20:27;;;;;;;0.57;0.37;;;;;;;16.22;36.75;97195.81;6289093;28;20233;-52
2024/04/03 09:23:31;;;;;;;1.13;0.50;;;;;;;16.39;40.00;97202.56;6288661;28;20217;-54
2024/04/03 09:26:32;;;;;;;0.60;0.30;;;;;;;16.39;39.27;97197.19;6294328;28;20197;-53
2024/04/03 09:29:34;;;;;;;0.70;0.40;;;;;;;16.58;38.08;97189.94;6292525;28;20396;-54
2024/04/03 09:32:37;;;;;;;0.53;0.40;;;;;;;16.69;37.93;97193.25;6286288;28;20190;-54
2024/04/03 09:35:43;;;;;;;0.67;0.40;;;;;;;16.72;39.63;97184.63;6293306;28;20205;-53
2024/04/03 09:38:44;;;;;;;0.57;0.30;;;;;;;16.74;35.67;97185.94;6274761;28;20189;-54
2024/04/03 09:41:46;;;;;;;0.67;0.40;;;;;;;16.87;35.43;97178.22;6269076;28;20680;-54
2024/04/03 09:44:53;;;;;;;1.47;0.37;;;;;;;16.90;37.43;97180.31;6299602;28;20190;-54
2024/04/03 09:48:08;;;;;;;0.30;0.30;;;;;;;16.59;33.37;97174.59;6283410;28;20201;-53
2024/04/03 09:51:09;;;;;;;0.63;0.43;;;;;;;16.58;34.73;97175.69;6297540;28;20281;-52
2024/04/03 09:54:11;;;;;;;3.00;0.50;;;;;;;16.63;37.01;97167.53;6292273;28;20206;-54
2024/04/03 09:57:13;;;;;;;0.50;0.30;;;;;;;16.48;36.15;97168.56;6287235;28;20194;-51
2024/04/03 10:00:16;;;;;;;0.63;0.40;;;;;;;16.35;34.99;97163.91;6294679;28;20186;-53
2024/04/03 10:03:22;;;;;;;0.80;0.30;;;;;;;16.36;34.37;97160.97;6279049;28;20186;-52
2024/04/03 10:06:27;;;;;;;2.20;0.50;;;;;;;16.51;35.06;97157.25;6280200;28;20190;-53
2024/04/03 10:09:30;;;;;;;1.07;0.20;;;;;;;16.41;37.23;97144.75;6287664;28;20251;-54
2024/04/03 10:12:31;;;;;;;0.40;0.30;;;;;;;16.70;36.77;97151.84;6291584;28;20194;-53
2024/04/03 10:15:32;;;;;;;0.43;0.30;;;;;;;17.00;36.03;97147.84;6288738;28;20186;-53
2024/04/03 10:18:35;;;;;;;0.30;0.30;;;;;;;17.23;36.47;97138.81;6289006;28;20222;-52
2024/04/03 10:21:36;;;;;;;0.50;0.30;;;;;;;17.33;35.90;97139.72;6289661;28;20249;-55
2024/04/03 10:24:37;;;;;;;0.67;0.40;;;;;;;17.31;33.09;97136.53;6302991;28;20196;-54
2024/04/03 10:27:38;;;;;;;0.30;0.30;;;;;;;17.38;37.52;97129.63;6304602;28;20195;-54
2024/04/03 10:30:40;;;;;;;0.70;0.47;;;;;;;17.51;35.67;97136.13;6286128;28;20267;-53
2024/04/03 10:33:41;;;;;;;1.00;0.40;;;;;;;17.20;37.58;97134.03;6287802;28;20213;-52
2024/04/03 10:36:42;;;;;;;0.43;0.23;;;;;;;17.02;36.44;97124.94;6285020;28;20194;-52
2024/04/03 10:39:44;;;;;;;0.90;0.30;;;;;;;17.03;34.79;97123.03;6285139;28;20265;-51
2024/04/03 10:42:49;;;;;;;0.70;0.50;;;;;;;17.23;36.24;97124.53;6273534;28;20552;-53
2024/04/03 10:45:51;;;;;;;1.23;0.50;;;;;;;17.30;32.73;97116.88;6295703;28;20187;-52
2024/04/03 10:48:56;;;;;;;1.00;0.40;;;;;;;17.33;34.47;97113.59;6289259;28;20194;-54
2024/04/03 10:51:57;;;;;;;1.10;0.30;;;;;;;17.45;33.07;97102.34;6288261;28;20199;-54
2024/04/03 10:54:58;;;;;;;0.50;0.30;;;;;;;17.54;35.08;97104.03;6292090;28;20293;-52
2024/04/03 10:58:04;;;;;;;0.27;0.27;;;;;;;17.63;34.63;97106.00;6279041;28;20224;-54
2024/04/03 11:01:05;;;;;;;0.30;0.30;;;;;;;17.71;35.52;97102.59;6291872;28;20201;-55
2024/04/03 11:04:07;;;;;;;1.70;0.40;;;;;;;17.70;33.83;97107.19;6297292;28;20567;-54
2024/04/03 11:07:13;;;;;;;0.23;0.20;;;;;;;17.56;31.51;97101.00;6300227;28;20191;-53
2024/04/03 11:10:14;;;;;;;0.97;0.40;;;;;;;17.62;33.81;97096.31;6297136;28;20245;-52
2024/04/03 11:13:19;;;;;;;0.93;0.30;;;;;;;17.63;35.52;97093.31;6290719;28;20202;-54
2024/04/03 11:16:22;;;;;;;0.73;0.50;;;;;;;17.78;32.26;97094.91;6291798;28;20195;-54
2024/04/03 11:19:24;;;;;;;0.67;0.20;;;;;;;17.76;33.72;97089.03;6302650;28;20337;-53
2024/04/03 11:22:26;;;;;;;0.57;0.30;;;;;;;17.71;32.80;97087.22;6293932;28;20182;-53
2024/04/03 11:25:32;;;;;;;0.40;0.30;;;;;;;17.62;33.58;97078.25;6278091;28;20205;-54
2024/04/03 11:28:33;;;;;;;1.73;0.50;;;;;;;17.60;33.46;97079.69;6301467;28;20202;-55
2024/04/03 11:31:34;;;;;;;0.87;0.30;;;;;;;17.65;36.19;97088.44;6296743;28;20808;-53
2024/04/03 11:34:35;;;;;;;1.57;0.43;;;;;;;17.73;33.52;97077.00;6294477;28;20677;-58
2024/04/03 11:37:37;;;;;;;0.30;0.30;;;;;;;17.77;35.98;97069.88;6292021;28;20198;-51
2024/04/03 11:40:38;;;;;;;0.93;0.40;;;;;;;17.81;34.23;97075.47;6291845;28;20187;-53
2024/04/03 11:43:39;;;;;;;0.60;0.40;;;;;;;17.79;34.87;97067.69;6292898;28;20328;-55
2024/04/03 11:46:43;;;;;;;0.63;0.40;;;;;;;17.76;35.47;97070.19;6292562;28;20198;-54
2024/04/03 11:49:44;;;;;;;0.63;0.33;;;;;;;17.79;33.16;97070.38;6285870;28;20210;-54
2024/04/03 11:52:45;;;;;;;2.47;0.40;;;;;;;18.00;35.43;97059.94;6289504;28;20190;-54
2024/04/03 11:55:46;;;;;;;2.20;0.33;;;;;;;17.99;32.37;97063.75;6299370;28;20288;-55
2024/04/03 11:58:48;;;;;;;0.40;0.30;;;;;;;17.90;33.30;97054.78;6288802;28;20190;-52
2024/04/03 12:01:49;;;;;;;2.23;0.37;;;;;;;17.98;30.25;97058.63;6278360;28;20214;-53
2024/04/03 12:04:50;;;;;;;0.97;0.40;;;;;;;17.94;32.97;97058.47;6291424;28;20265;-55
2024/04/03 12:07:51;;;;;;;0.50;0.40;;;;;;;18.02;33.86;97043.44;6286675;28;20198;-54
2024/04/03 12:10:52;;;;;;;0.20;0.20;;;;;;;18.04;32.76;97055.53;6291346;28;20195;-53
2024/04/03 12:13:53;;;;;;;1.27;0.40;;;;;;;17.94;31.18;97046.91;6296442;28;20223;-54
2024/04/03 12:16:55;;;;;;;3.20;0.47;;;;;;;17.83;30.83;97046.31;6294666;28;20186;-54
2024/04/03 12:23:03;;;;;;;2.73;0.30;;;;;;;17.88;30.39;97046.22;6286876;28;20191;-54
2024/04/03 12:26:04;;;;;;;1.43;0.30;;;;;;;17.89;30.84;97047.00;6295962;28;20194;-54
2024/04/03 12:29:06;;;;;;;0.40;0.30;;;;;;;17.97;30.36;97051.66;6286924;28;20214;-52
2024/04/03 12:32:07;;;;;;;3.37;0.60;;;;;;;17.74;29.64;97042.75;6270694;28;20708;-55
2024/04/03 12:35:08;;;;;;;0.50;0.30;;;;;;;17.58;31.30;97050.31;6287335;28;20197;-53
2024/04/03 12:38:12;;;;;;;1.60;0.30;;;;;;;17.55;32.45;97040.19;6297630;28;20186;-53
2024/04/03 12:41:14;;;;;;;1.43;0.30;;;;;;;17.41;33.35;97036.69;6285569;28;20862;-53
2024/04/03 12:44:15;;;;;;;0.20;0.20;;;;;;;17.47;33.37;97041.66;6294702;28;20190;-53
2024/04/03 12:47:16;;;;;;;1.93;0.50;;;;;;;17.71;32.78;97036.03;6289125;28;20213;-53
2024/04/03 12:50:17;;;;;;;0.77;0.30;;;;;;;17.70;35.77;97049.81;6297519;28;20554;-53
2024/04/03 12:53:18;;;;;;;0.50;0.40;;;;;;;17.44;35.74;97044.97;6296872;28;20562;-53
2024/04/03 12:56:20;;;;;;;0.77;0.30;;;;;;;17.57;36.53;97043.34;6289629;28;20209;-54
2024/04/03 12:59:23;;;;;;;0.87;0.40;;;;;;;17.59;38.79;97037.69;6288699;28;20191;-53
2024/04/03 13:02:27;;;;;;;0.37;0.30;;;;;;;17.67;35.64;97048.50;6289319;28;20183;-54
2024/04/03 13:05:28;;;;;;;0.40;0.37;;;;;;;17.67;35.01;97034.25;6299188;28;20194;-53
2024/04/03 13:08:29;;;;;;;1.53;0.40;;;;;;;17.46;35.33;97040.09;6296660;28;20686;-55
2024/04/03 13:11:31;;;;;;;1.60;0.43;;;;;;;17.53;36.27;97043.16;6294835;28;20686;-53
2024/04/03 13:14:32;;;;;;;0.30;0.30;;;;;;;17.39;37.05;97037.00;6290116;28;20708;-53
2024/04/03 13:17:33;;;;;;;0.50;0.33;;;;;;;17.41;36.53;97039.41;6295462;28;20739;-53
2024/04/03 13:20:35;;;;;;;0.30;0.30;;;;;;;17.20;37.62;97042.50;6299733;28;20713;-52
2024/04/03 13:23:36;;;;;;;0.67;0.30;;;;;;;17.20;37.73;97047.09;6291489;28;20190;-54
2024/04/03 13:26:37;;;;;;;0.40;0.40;;;;;;;17.08;39.35;97042.19;6292280;28;20197;-54
2024/04/03 13:29:39;;;;;;;1.27;0.30;;;;;;;16.95;38.53;97043.00;6303259;28;20206;-52
2024/04/03 13:32:41;;;;;;;0.77;0.40;;;;;;;17.01;40.20;97049.88;6290817;28;20768;-52
2024/04/03 13:35:42;;;;;;;0.50;0.50;;;;;;;17.07;39.27;97047.88;6282523;28;20190;-54
2024/04/03 13:38:43;;;;;;;0.60;0.40;;;;;;;16.99;40.14;97047.50;6283743;28;20817;-53
2024/04/03 13:41:44;;;;;;;0.70;0.40;;;;;;;16.92;40.54;97049.78;6280810;28;20281;-54
2024/04/03 13:44:46;;;;;;;1.53;0.40;;;;;;;17.00;41.17;97046.41;6267525;28;20663;-55
2024/04/03 13:47:47;;;;;;;0.53;0.40;;;;;;;17.12;41.12;97048.59;6283038;28;20197;-54
2024/04/03 13:50:48;;;;;;;0.90;0.40;;;;;;;17.01;39.34;97047.19;6267036;28;20186;-52
2024/04/03 13:53:49;;;;;;;0.47;0.40;;;;;;;16.90;41.26;97051.19;6288618;28;20242;-52
2024/04/03 13:56:50;;;;;;;2.17;0.60;;;;;;;16.76;41.40;97051.97;6293848;28;20194;-54
2024/04/03 13:59:56;;;;;;;0.87;0.37;;;;;;;16.70;42.16;97047.75;6287568;28;20197;-53
2024/04/03 14:02:57;;;;;;;0.90;0.50;;;;;;;16.70;42.00;97042.34;6292942;28;20186;-53
2024/04/03 14:06:00;;;;;;;0.60;0.40;;;;;;;16.75;41.76;97038.81;6292710;28;20190;-54
2024/04/03 14:09:03;;;;;;;0.27;0.23;;;;;;;16.77;42.80;97039.31;6273616;28;20207;-55
2024/04/03 14:12:04;;;;;;;2.20;0.30;;;;;;;16.59;40.46;97034.75;6293868;28;20256;-54
2024/04/03 14:15:07;;;;;;;1.47;0.40;;;;;;;16.60;41.48;97036.34;6293554;28;20190;-55
2024/04/03 14:18:14;;;;;;;0.93;0.30;;;;;;;16.55;43.21;97036.44;6295581;28;20194;-55
2024/04/03 14:21:15;;;;;;;2.20;0.50;;;;;;;16.52;43.90;97038.63;6289892;28;20213;-55
2024/04/03 14:24:16;;;;;;;0.50;0.43;;;;;;;16.55;42.17;97033.75;6298996;28;20265;-54